createdAt,value
2017-12-11T00:02:05.610Z,12.18
2017-12-11T00:04:33.453Z,11.27
2017-12-11T00:07:08.133Z,11.60
2017-12-11T00:09:35.956Z,11.77
2017-12-11T00:12:03.801Z,11.38
2017-12-11T00:14:31.615Z,12.45
2017-12-11T00:16:59.440Z,12.20
2017-12-11T00:19:27.288Z,12.25
2017-12-11T00:21:55.132Z,12.40
2017-12-11T00:24:22.977Z,12.30
2017-12-11T00:26:50.808Z,10.95
2017-12-11T00:29:18.668Z,11.65
2017-12-11T00:31:46.516Z,11.52
2017-12-11T00:34:14.388Z,12.63
2017-12-11T00:36:42.279Z,12.48
2017-12-11T00:39:10.172Z,11.93
2017-12-11T00:41:38.005Z,12.07
2017-12-11T00:44:05.832Z,11.93
2017-12-11T00:46:33.681Z,12.77
2017-12-11T00:49:01.516Z,12.93
2017-12-11T00:51:29.407Z,11.07
2017-12-11T00:53:57.246Z,12.50
2017-12-11T00:56:25.136Z,11.32
2017-12-11T00:58:52.982Z,12.60
2017-12-11T01:01:20.826Z,11.98
2017-12-11T01:03:48.711Z,14.05
2017-12-11T01:06:16.548Z,11.85
2017-12-11T01:08:44.369Z,12.02
2017-12-11T01:11:12.205Z,12.05
2017-12-11T01:13:40.052Z,13.27
2017-12-11T01:16:07.901Z,12.60
2017-12-11T01:18:35.721Z,12.13
2017-12-11T01:21:03.565Z,13.10
2017-12-11T01:23:31.433Z,12.00
2017-12-11T01:25:59.250Z,12.88
2017-12-11T01:28:27.084Z,12.20
2017-12-11T01:30:54.909Z,13.62
2017-12-11T01:33:22.817Z,13.60
2017-12-11T01:35:50.676Z,13.68
2017-12-11T01:38:18.551Z,12.77
2017-12-11T01:40:46.393Z,12.20
2017-12-11T01:43:14.286Z,12.05
2017-12-11T01:45:42.145Z,12.60
2017-12-11T01:48:09.997Z,15.70
2017-12-11T01:50:37.832Z,14.13
2017-12-11T01:53:05.676Z,14.48
2017-12-11T01:55:33.514Z,15.00
2017-12-11T01:58:01.356Z,14.18
2017-12-11T02:00:29.197Z,13.68
2017-12-11T02:02:57.028Z,14.20
2017-12-11T02:05:25.484Z,16.55
2017-12-11T02:07:59.463Z,14.18
2017-12-11T02:10:27.325Z,16.48
2017-12-11T02:12:55.168Z,15.13
2017-12-11T02:15:23.656Z,15.65
2017-12-11T02:17:51.529Z,16.48
2017-12-11T02:20:19.395Z,15.63
2017-12-11T02:22:47.261Z,15.65
2017-12-11T02:25:15.092Z,15.55
2017-12-11T02:27:42.932Z,15.55
2017-12-11T02:30:10.808Z,15.45
2017-12-11T02:32:38.678Z,17.50
2017-12-11T02:35:06.504Z,15.85
2017-12-11T02:37:34.351Z,16.20
2017-12-11T02:40:02.213Z,15.55
2017-12-11T02:42:30.042Z,15.98
2017-12-11T02:44:57.900Z,15.90
2017-12-11T02:47:25.737Z,14.45
2017-12-11T02:49:53.578Z,15.70
2017-12-11T02:52:21.400Z,16.08
2017-12-11T02:54:49.230Z,15.73
2017-12-11T02:57:20.664Z,16.58
2017-12-11T02:59:48.496Z,15.00
2017-12-11T03:02:16.341Z,17.40
2017-12-11T03:04:44.191Z,17.65
2017-12-11T03:07:12.042Z,17.37
2017-12-11T03:09:39.867Z,15.80
2017-12-11T03:12:07.716Z,17.98
2017-12-11T03:14:35.536Z,15.50
2017-12-11T03:17:16.747Z,18.45
2017-12-11T03:19:44.592Z,16.75
2017-12-11T03:22:12.436Z,16.27
2017-12-11T03:24:40.277Z,18.62
2017-12-11T03:27:08.108Z,18.00
2017-12-11T03:29:35.953Z,18.67
2017-12-11T03:32:03.780Z,19.17
2017-12-11T03:34:31.627Z,17.42
2017-12-11T03:36:59.467Z,18.10
2017-12-11T03:39:27.319Z,19.80
2017-12-11T03:41:55.143Z,19.15
2017-12-11T03:44:23.024Z,19.75
2017-12-11T03:46:50.884Z,18.12
2017-12-11T03:49:18.716Z,19.98
2017-12-11T03:51:46.571Z,20.88
2017-12-11T03:54:14.391Z,18.98
2017-12-11T03:56:42.243Z,19.70
2017-12-11T03:59:10.068Z,17.87
2017-12-11T04:01:37.909Z,19.33
2017-12-11T04:04:05.780Z,19.87
2017-12-11T04:09:34.925Z,18.98
2017-12-11T04:12:02.764Z,19.90
2017-12-11T04:14:30.625Z,18.67
2017-12-11T04:16:58.444Z,19.27
2017-12-11T04:19:26.269Z,19.45
2017-12-11T04:21:54.180Z,19.35
2017-12-11T04:24:22.040Z,19.35
2017-12-11T04:26:49.848Z,20.83
2017-12-11T04:29:17.693Z,19.83
2017-12-11T04:31:45.536Z,22.15
2017-12-11T04:34:13.424Z,20.92
2017-12-11T04:36:41.269Z,22.33
2017-12-11T04:39:09.114Z,21.62
2017-12-11T04:41:36.939Z,20.30
2017-12-11T04:44:04.805Z,21.87
2017-12-11T04:46:49.608Z,21.77
2017-12-11T04:52:09.276Z,21.77
2017-12-11T04:54:37.144Z,23.30
2017-12-11T04:57:11.722Z,22.77
2017-12-11T04:59:39.576Z,21.48
2017-12-11T05:02:07.402Z,23.95
2017-12-11T05:04:35.270Z,21.90
2017-12-11T05:10:04.202Z,22.08
2017-12-11T05:12:32.052Z,23.80
2017-12-11T05:14:59.922Z,22.48
2017-12-11T05:17:27.772Z,22.87
2017-12-11T05:19:55.625Z,23.15
2017-12-11T05:22:23.472Z,25.30
2017-12-11T05:24:51.357Z,24.95
2017-12-11T05:27:19.219Z,26.10
2017-12-11T05:29:47.065Z,24.42
2017-12-11T05:32:14.950Z,25.30
2017-12-11T05:34:42.778Z,23.58
2017-12-11T05:37:10.623Z,23.38
2017-12-11T05:39:38.468Z,24.55
2017-12-11T05:42:06.312Z,25.23
2017-12-11T05:44:34.141Z,23.50
2017-12-11T05:47:02.009Z,25.30
2017-12-11T05:49:29.878Z,23.40
2017-12-11T05:51:57.735Z,24.92
2017-12-11T05:54:25.572Z,24.73
2017-12-11T05:56:59.993Z,25.35
2017-12-11T05:59:27.824Z,25.55
2017-12-11T06:01:55.672Z,25.08
2017-12-11T06:04:23.540Z,25.20
2017-12-11T06:06:51.405Z,24.63
2017-12-11T06:09:19.236Z,24.75
2017-12-11T06:11:47.101Z,24.00
2017-12-11T06:14:14.936Z,21.80
2017-12-11T06:19:47.220Z,24.23
2017-12-11T06:22:15.278Z,24.63
2017-12-11T06:24:47.308Z,23.42
2017-12-11T06:30:19.844Z,23.83
2017-12-11T06:32:47.684Z,24.42
2017-12-11T06:35:15.547Z,25.50
2017-12-11T06:40:44.545Z,27.10
2017-12-11T06:43:12.386Z,25.88
2017-12-11T06:45:40.231Z,25.05
2017-12-11T06:48:14.844Z,24.40
2017-12-11T06:50:42.703Z,25.92
2017-12-11T06:53:10.582Z,25.65
2017-12-11T06:55:38.440Z,26.77
2017-12-11T06:58:06.287Z,25.80
2017-12-11T07:00:34.138Z,25.23
2017-12-11T07:03:02.032Z,26.50
2017-12-11T07:05:29.872Z,25.65
2017-12-11T07:07:57.727Z,25.60
2017-12-11T07:10:25.581Z,26.00
2017-12-11T07:12:53.415Z,27.77
2017-12-11T07:15:21.265Z,26.00
2017-12-11T07:17:49.153Z,27.37
2017-12-11T07:20:17.043Z,25.60
2017-12-11T07:22:44.869Z,25.45
2017-12-11T07:25:12.733Z,24.83
2017-12-11T07:27:40.791Z,26.85
2017-12-11T07:30:08.672Z,26.27
2017-12-11T07:32:36.504Z,27.15
2017-12-11T07:35:04.341Z,26.30
2017-12-11T07:37:32.157Z,25.40
2017-12-11T07:39:59.984Z,26.33
2017-12-11T07:42:27.837Z,26.00
2017-12-11T07:44:55.673Z,27.50
2017-12-11T07:47:23.933Z,28.00
2017-12-11T07:49:51.850Z,30.20
2017-12-11T07:52:19.684Z,26.33
2017-12-11T07:54:47.545Z,27.67
2017-12-11T07:57:15.400Z,25.73
2017-12-11T07:59:43.244Z,30.27
2017-12-11T08:02:11.113Z,26.77
2017-12-11T08:04:38.940Z,27.70
2017-12-11T08:07:06.801Z,29.00
2017-12-11T08:09:34.652Z,24.08
2017-12-11T08:12:02.541Z,29.45
2017-12-11T08:14:30.372Z,26.50
2017-12-11T08:16:58.241Z,27.77
2017-12-11T08:19:26.102Z,26.87
2017-12-11T08:21:54.025Z,29.45
2017-12-11T08:24:21.878Z,27.10
2017-12-11T08:26:49.752Z,27.40
2017-12-11T08:29:17.617Z,28.62
2017-12-11T08:31:45.460Z,28.55
2017-12-11T08:34:13.355Z,30.50
2017-12-11T08:36:47.341Z,27.48
2017-12-11T08:39:15.230Z,29.33
2017-12-11T08:41:43.074Z,26.83
2017-12-11T08:44:10.937Z,29.33
2017-12-11T08:46:38.805Z,27.10
2017-12-11T08:49:06.609Z,26.08
2017-12-11T08:51:34.458Z,25.20
2017-12-11T08:54:02.339Z,27.37
2017-12-11T08:56:43.744Z,28.27
2017-12-11T08:59:11.569Z,25.65
2017-12-11T09:01:39.421Z,27.15
2017-12-11T09:04:07.283Z,26.87
2017-12-11T09:06:48.589Z,27.02
2017-12-11T09:09:16.432Z,27.85
2017-12-11T09:11:44.301Z,25.62
2017-12-11T09:14:12.166Z,26.55
2017-12-11T09:16:40.061Z,26.60
2017-12-11T09:19:07.905Z,26.83
2017-12-11T09:21:35.761Z,28.00
2017-12-11T09:24:03.649Z,27.15
2017-12-11T09:26:31.505Z,26.20
2017-12-11T09:28:59.397Z,28.50
2017-12-11T09:31:27.216Z,26.98
2017-12-11T09:33:55.073Z,27.13
2017-12-11T09:36:22.888Z,27.83
2017-12-11T09:38:50.726Z,26.75
2017-12-11T09:41:18.537Z,28.62
2017-12-11T09:43:46.366Z,28.42
2017-12-11T09:46:14.202Z,28.30
2017-12-11T09:51:42.429Z,28.58
2017-12-11T09:54:11.155Z,30.23
2017-12-11T09:56:45.197Z,30.00
2017-12-11T09:59:13.063Z,29.70
2017-12-11T10:01:40.906Z,29.58
2017-12-11T10:04:08.756Z,30.58
2017-12-11T10:06:43.466Z,29.30
2017-12-11T10:09:11.369Z,30.05
2017-12-11T10:11:39.255Z,30.42
2017-12-11T10:14:07.117Z,28.17
2017-12-11T10:16:34.985Z,29.08
2017-12-11T10:19:02.854Z,26.87
2017-12-11T10:21:30.709Z,28.95
2017-12-11T10:23:58.605Z,29.23
2017-12-11T10:26:26.449Z,29.20
2017-12-11T10:28:54.316Z,30.95
2017-12-11T10:31:22.185Z,32.47
2017-12-11T10:33:50.021Z,28.90
2017-12-11T10:36:17.860Z,29.20
2017-12-11T10:38:45.701Z,27.52
2017-12-11T10:41:13.570Z,29.87
2017-12-11T10:43:41.428Z,27.83
2017-12-11T10:46:09.305Z,28.40
2017-12-11T10:48:44.897Z,28.95
2017-12-11T10:51:13.097Z,31.83
2017-12-11T10:53:40.964Z,27.67
2017-12-11T10:56:08.858Z,29.85
2017-12-11T10:58:36.721Z,27.48
2017-12-11T11:01:04.596Z,28.60
2017-12-11T11:03:32.466Z,26.92
2017-12-11T11:06:00.315Z,27.55
2017-12-11T11:08:28.156Z,29.30
2017-12-11T11:10:56.051Z,30.92
2017-12-11T11:13:23.908Z,29.17
2017-12-11T11:15:51.777Z,31.52
2017-12-11T11:21:11.307Z,31.37
2017-12-11T11:23:39.146Z,29.00
2017-12-11T11:26:06.988Z,30.42
2017-12-11T11:28:34.841Z,29.87
2017-12-11T11:31:02.704Z,31.98
2017-12-11T11:33:30.568Z,31.23
2017-12-11T11:35:58.420Z,30.45
2017-12-11T11:38:31.532Z,31.30
2017-12-11T11:40:59.367Z,32.20
2017-12-11T11:43:27.205Z,31.60
2017-12-11T11:45:55.065Z,30.45
2017-12-11T11:48:29.652Z,31.58
2017-12-11T11:50:57.477Z,31.37
2017-12-11T11:53:25.327Z,32.67
2017-12-11T11:55:53.140Z,30.90
2017-12-11T11:58:21.017Z,31.58
2017-12-11T12:00:48.888Z,33.38
2017-12-11T12:03:16.757Z,31.90
2017-12-11T12:05:44.572Z,29.65
2017-12-11T12:08:12.420Z,28.55
2017-12-11T12:10:40.277Z,30.83
2017-12-11T12:13:08.127Z,30.02
2017-12-11T12:15:35.973Z,29.90
2017-12-11T12:18:10.840Z,28.55
2017-12-11T12:20:38.720Z,30.80
2017-12-11T12:23:06.561Z,32.28
2017-12-11T12:25:34.417Z,31.80
2017-12-11T12:28:02.286Z,31.40
2017-12-11T12:30:30.173Z,29.17
2017-12-11T12:32:58.037Z,30.40
2017-12-11T12:35:25.897Z,29.08
2017-12-11T12:37:53.765Z,32.08
2017-12-11T12:40:21.632Z,30.45
2017-12-11T12:42:49.497Z,33.03
2017-12-11T12:45:17.365Z,31.67
2017-12-11T12:47:45.233Z,32.53
2017-12-11T12:50:13.056Z,31.10
2017-12-11T12:52:40.924Z,31.85
2017-12-11T12:55:08.805Z,31.65
2017-12-11T12:57:36.651Z,32.10
2017-12-11T13:00:04.503Z,32.30
2017-12-11T13:02:32.338Z,32.42
2017-12-11T13:05:00.195Z,32.97
2017-12-11T13:07:28.040Z,31.20
2017-12-11T13:09:55.879Z,33.28
2017-12-11T13:12:23.695Z,33.25
2017-12-11T13:14:51.556Z,34.20
2017-12-11T13:17:19.433Z,30.50
2017-12-11T13:19:47.285Z,33.38
2017-12-11T13:22:15.172Z,31.60
2017-12-11T13:24:43.039Z,31.73
2017-12-11T13:27:17.141Z,34.30
2017-12-11T13:29:44.993Z,34.05
2017-12-11T13:32:12.861Z,33.30
2017-12-11T13:34:40.752Z,32.40
2017-12-11T13:37:08.646Z,32.83
2017-12-11T13:39:36.484Z,32.22
2017-12-11T13:42:04.352Z,32.38
2017-12-11T13:44:32.196Z,33.60
2017-12-11T13:47:06.957Z,33.53
2017-12-11T13:49:34.812Z,31.48
2017-12-11T13:52:02.686Z,34.55
2017-12-11T13:54:30.520Z,34.72
2017-12-11T13:59:46.707Z,31.00
2017-12-11T14:02:14.557Z,35.40
2017-12-11T14:04:42.412Z,31.50
2017-12-11T14:07:10.228Z,32.47
2017-12-11T14:09:38.053Z,35.30
2017-12-11T14:12:05.904Z,32.75
2017-12-11T14:14:33.772Z,33.17
2017-12-11T14:17:01.604Z,31.85
2017-12-11T14:19:29.464Z,31.55
2017-12-11T14:21:57.321Z,32.35
2017-12-11T14:24:25.145Z,34.50
2017-12-11T14:26:53.013Z,32.78
2017-12-11T14:29:20.918Z,34.60
2017-12-11T14:31:48.753Z,32.83
2017-12-11T14:34:16.601Z,32.92
2017-12-11T14:36:44.538Z,32.10
2017-12-11T14:39:12.384Z,32.97
2017-12-11T14:41:40.273Z,35.53
2017-12-11T14:44:08.145Z,34.50
2017-12-11T14:46:49.575Z,32.67
2017-12-11T14:49:17.416Z,36.17
2017-12-11T14:54:39.112Z,35.78
2017-12-11T14:57:06.976Z,32.95
2017-12-11T14:59:34.812Z,34.47
2017-12-11T15:02:02.715Z,36.67
2017-12-11T15:04:30.613Z,34.50
2017-12-11T15:07:05.037Z,34.72
2017-12-11T15:09:32.882Z,33.20
2017-12-11T15:12:00.734Z,34.00
2017-12-11T15:14:28.679Z,32.72
2017-12-11T15:20:02.671Z,33.33
2017-12-11T15:22:30.606Z,36.03
2017-12-11T15:24:58.558Z,36.10
2017-12-11T15:27:33.290Z,32.53
2017-12-11T15:30:01.157Z,35.35
2017-12-11T15:32:28.998Z,34.65
2017-12-11T15:34:56.864Z,33.33
2017-12-11T15:37:24.726Z,32.80
2017-12-11T15:39:52.581Z,31.37
2017-12-11T15:42:20.436Z,36.08
2017-12-11T15:44:48.313Z,36.83
2017-12-11T15:47:16.257Z,33.05
2017-12-11T15:49:44.114Z,34.13
2017-12-11T15:52:12.029Z,36.50
2017-12-11T15:54:39.872Z,34.67
2017-12-11T15:57:16.132Z,33.90
2017-12-11T15:59:45.109Z,35.35
2017-12-11T16:02:13.396Z,34.80
2017-12-11T16:04:41.536Z,33.40
2017-12-11T16:07:12.981Z,34.53
2017-12-11T16:09:40.842Z,36.13
2017-12-11T16:12:08.689Z,35.05
2017-12-11T16:14:36.556Z,37.05
2017-12-11T16:17:04.391Z,37.55
2017-12-11T16:19:32.244Z,39.58
2017-12-11T16:22:00.108Z,36.58
2017-12-11T16:24:27.921Z,36.75
2017-12-11T16:26:55.806Z,37.03
2017-12-11T16:29:23.662Z,36.75
2017-12-11T16:31:51.510Z,37.85
2017-12-11T16:34:19.325Z,38.35
2017-12-11T16:39:39.100Z,35.60
2017-12-11T16:42:06.949Z,31.35
2017-12-11T16:44:34.777Z,35.65
2017-12-11T16:47:11.242Z,35.53
2017-12-11T16:49:39.129Z,33.38
2017-12-11T16:52:07.159Z,30.88
2017-12-11T16:54:35.021Z,34.90
2017-12-11T16:57:02.888Z,34.95
2017-12-11T16:59:30.749Z,36.08
2017-12-11T17:01:58.657Z,33.83
2017-12-11T17:04:26.493Z,33.72
2017-12-11T17:06:54.335Z,34.33
2017-12-11T17:09:22.178Z,34.90
2017-12-11T17:11:50.038Z,31.20
2017-12-11T17:14:17.863Z,30.55
2017-12-11T17:22:44.754Z,29.67
2017-12-11T17:25:12.613Z,32.58
2017-12-11T17:30:41.325Z,30.65
2017-12-11T17:33:09.190Z,30.20
2017-12-11T17:35:37.001Z,27.98
2017-12-11T17:38:04.837Z,29.25
2017-12-11T17:40:32.691Z,26.10
2017-12-11T17:43:00.572Z,28.90
2017-12-11T17:45:28.433Z,28.50
2017-12-11T17:47:56.333Z,27.95
2017-12-11T17:50:24.164Z,26.55
2017-12-11T17:52:52.030Z,27.77
2017-12-11T17:55:19.897Z,30.17
2017-12-11T17:57:51.703Z,27.25
2017-12-11T18:00:19.592Z,26.60
2017-12-11T18:05:41.961Z,25.90
2017-12-11T18:08:24.403Z,27.73
2017-12-11T18:10:52.294Z,28.75
2017-12-11T18:13:20.165Z,26.45
2017-12-11T18:15:48.122Z,27.80
2017-12-11T18:21:16.509Z,27.35
2017-12-11T18:23:44.390Z,25.10
2017-12-11T18:26:12.495Z,26.73
2017-12-11T18:28:41.436Z,26.52
2017-12-11T18:31:09.281Z,29.12
2017-12-11T18:33:37.154Z,24.65
2017-12-11T18:36:05.036Z,25.62
2017-12-11T18:38:32.885Z,24.02
2017-12-11T18:41:00.715Z,24.90
2017-12-11T18:43:28.670Z,23.65
2017-12-11T18:45:56.590Z,24.67
2017-12-11T18:51:15.131Z,24.60
2017-12-11T18:53:43.197Z,26.37
2017-12-11T18:56:11.201Z,25.77
2017-12-11T18:58:39.096Z,27.00
2017-12-11T19:01:06.953Z,24.65
2017-12-11T19:03:34.875Z,23.83
2017-12-11T19:06:02.765Z,25.67
2017-12-11T19:08:30.705Z,26.08
2017-12-11T19:10:58.569Z,24.33
2017-12-11T19:13:31.469Z,26.33
2017-12-11T19:15:59.367Z,25.70
2017-12-11T19:18:27.228Z,24.45
2017-12-11T19:20:55.105Z,25.70
2017-12-11T19:23:23.011Z,24.80
2017-12-11T19:25:50.897Z,25.33
2017-12-11T19:28:25.411Z,25.42
2017-12-11T19:30:53.300Z,24.58
2017-12-11T19:33:21.253Z,26.50
2017-12-11T19:35:49.137Z,29.20
2017-12-11T19:38:17.020Z,27.45
2017-12-11T19:40:44.930Z,26.05
2017-12-11T19:43:13.154Z,26.85
2017-12-11T19:45:41.153Z,27.30
2017-12-11T19:48:15.343Z,26.27
2017-12-11T19:50:43.192Z,25.65
2017-12-11T19:53:11.048Z,27.35
2017-12-11T19:55:38.924Z,27.30
2017-12-11T19:58:06.804Z,27.02
2017-12-11T20:00:34.661Z,27.45
2017-12-11T20:03:02.612Z,27.98
2017-12-11T20:05:30.486Z,27.62
2017-12-11T20:07:58.358Z,28.12
2017-12-11T20:10:26.262Z,25.88
2017-12-11T20:12:54.130Z,26.20
2017-12-11T20:15:22.032Z,27.08
2017-12-11T20:17:56.551Z,28.33
2017-12-11T20:20:24.390Z,27.00
2017-12-11T20:22:52.282Z,29.48
2017-12-11T20:25:20.135Z,28.23
2017-12-11T20:27:48.186Z,27.85
2017-12-11T20:30:16.120Z,27.73
2017-12-11T20:32:43.996Z,29.27
2017-12-11T20:35:11.844Z,26.98
2017-12-11T20:37:39.718Z,27.15
2017-12-11T20:40:07.586Z,27.95
2017-12-11T20:42:35.414Z,27.48
2017-12-11T20:45:03.248Z,26.98
2017-12-11T20:47:31.121Z,26.42
2017-12-11T20:49:58.920Z,27.55
2017-12-11T20:52:26.787Z,27.30
2017-12-11T20:54:54.705Z,26.08
2017-12-11T20:57:22.593Z,26.98
2017-12-11T20:59:50.493Z,25.73
2017-12-11T21:02:18.355Z,27.05
2017-12-11T21:07:39.560Z,26.65
2017-12-11T21:10:07.480Z,24.92
2017-12-11T21:12:35.378Z,26.42
2017-12-11T21:15:03.457Z,27.77
2017-12-11T21:17:31.327Z,28.08
2017-12-11T21:19:59.251Z,24.37
2017-12-11T21:22:27.140Z,26.40
2017-12-11T21:24:55.084Z,25.52
2017-12-11T21:27:30.126Z,25.98
2017-12-11T21:29:58.034Z,26.95
2017-12-11T21:32:25.887Z,26.42
2017-12-11T21:34:53.814Z,25.80
2017-12-11T21:37:21.716Z,25.02
2017-12-11T21:39:49.626Z,27.45
2017-12-11T21:42:17.516Z,26.40
2017-12-11T21:44:45.426Z,27.17
2017-12-11T21:47:13.252Z,25.12
2017-12-11T21:49:41.093Z,23.52
2017-12-11T21:52:08.908Z,23.50
2017-12-11T21:54:36.773Z,25.58
2017-12-11T21:57:04.617Z,23.02
2017-12-11T21:59:32.468Z,23.48
2017-12-11T22:02:00.295Z,24.83
2017-12-11T22:04:28.737Z,26.00
2017-12-11T22:06:56.564Z,22.33
2017-12-11T22:09:24.395Z,22.75
2017-12-11T22:11:52.244Z,24.67
2017-12-11T22:14:20.073Z,24.60
2017-12-11T22:16:48.024Z,23.60
2017-12-11T22:19:15.864Z,25.10
2017-12-11T22:21:43.733Z,24.73
2017-12-11T22:24:11.597Z,24.45
2017-12-11T22:26:39.464Z,25.90
2017-12-11T22:29:07.309Z,22.13
2017-12-11T22:31:35.179Z,23.58
2017-12-11T22:34:03.040Z,24.00
2017-12-11T22:36:30.875Z,23.23
2017-12-11T22:38:58.717Z,24.27
2017-12-11T22:41:26.559Z,23.38
2017-12-11T22:43:54.429Z,24.60
2017-12-11T22:46:22.323Z,23.30
2017-12-11T22:48:50.181Z,23.05
2017-12-11T22:51:18.071Z,24.25
2017-12-11T22:53:45.981Z,22.17
2017-12-11T22:56:13.913Z,23.35
2017-12-11T22:58:47.969Z,22.73
2017-12-11T23:01:16.616Z,22.65
2017-12-11T23:03:44.460Z,22.77
2017-12-11T23:06:12.355Z,23.40
2017-12-11T23:08:40.201Z,22.75
2017-12-11T23:11:08.097Z,22.85
2017-12-11T23:13:35.987Z,24.70
2017-12-11T23:16:03.880Z,22.15
2017-12-11T23:18:38.037Z,22.55
2017-12-11T23:21:05.856Z,22.25
2017-12-11T23:23:33.716Z,20.92
2017-12-11T23:26:01.579Z,20.95
2017-12-11T23:28:29.467Z,23.40
2017-12-11T23:30:57.342Z,21.33
2017-12-11T23:33:25.188Z,20.35
2017-12-11T23:35:53.001Z,23.10
2017-12-11T23:38:20.864Z,22.23
2017-12-11T23:40:48.741Z,22.35
2017-12-11T23:43:16.592Z,23.70
2017-12-11T23:45:44.424Z,21.77
2017-12-11T23:51:16.917Z,23.08
2017-12-11T23:53:44.792Z,22.52
2017-12-11T23:56:12.701Z,23.35
